Time;durP1;ratioP1;P1;durP2;ratioP2;P2;SDS_P1;SDS_P2;PMS_P1;PMS_P2;Temp;Humidity;BMP_temperature;BMP_pressure;BME280_temperature;BME280_humidity;BME280_pressure;Samples;Min_cycle;Max_cycle;Signal;HPM_P1;HPM_P2
2022/11/17 00:00:16;;;;;;;2.88;1.50;;;11.40;75.60;;;;;;4989083;28;20080;-82
2022/11/17 00:03:01;;;;;;;2.42;1.30;;;11.40;75.60;;;;;;4979970;28;20045;-82
2022/11/17 00:05:45;;;;;;;4.80;1.75;;;11.40;75.60;;;;;;4992582;28;20501;-82
2022/11/17 00:08:31;;;;;;;1.80;1.50;;;11.40;75.70;;;;;;4991249;28;20057;-81
2022/11/17 00:11:15;;;;;;;3.72;1.33;;;11.40;75.70;;;;;;4978886;28;20061;-81
2022/11/17 00:17:06;;;;;;;2.25;1.10;;;11.30;75.50;;;;;;4979159;28;20046;-81
2022/11/17 00:22:53;;;;;;;2.90;1.23;;;11.40;75.70;;;;;;4989165;28;20100;-81
2022/11/17 00:25:38;;;;;;;3.03;1.55;;;11.40;75.70;;;;;;4986415;28;20085;-81
2022/11/17 00:28:22;;;;;;;1.33;0.98;;;11.40;75.70;;;;;;4984130;28;20184;-81
2022/11/17 00:34:16;;;;;;;3.63;0.88;;;11.40;75.70;;;;;;4987823;28;20045;-82
2022/11/17 00:37:01;;;;;;;2.58;1.00;;;11.40;75.70;;;;;;4983351;28;20131;-82
2022/11/17 00:39:45;;;;;;;1.83;0.70;;;11.40;75.70;;;;;;4983964;28;20037;-82
2022/11/17 00:42:29;;;;;;;2.88;0.98;;;11.40;75.70;;;;;;4974842;28;20069;-82
2022/11/17 00:45:14;;;;;;;1.85;1.25;;;11.40;75.70;;;;;;4983807;28;20045;-80
2022/11/17 00:47:59;;;;;;;4.10;0.80;;;11.40;75.70;;;;;;4987674;28;20054;-82
2022/11/17 00:50:43;;;;;;;2.30;1.05;;;11.30;75.60;;;;;;4972821;28;20033;-83
2022/11/17 00:53:28;;;;;;;2.65;0.80;;;11.40;75.80;;;;;;4987449;28;20382;-82
2022/11/17 00:56:13;;;;;;;1.92;0.70;;;11.30;75.60;;;;;;4989725;28;20536;-83
2022/11/17 00:58:58;;;;;;;2.72;1.08;;;11.40;75.80;;;;;;4990658;28;20102;-81
2022/11/17 01:01:42;;;;;;;1.98;0.70;;;11.40;75.80;;;;;;4988670;28;20096;-83
2022/11/17 01:04:27;;;;;;;2.40;0.98;;;11.30;75.70;;;;;;4984915;28;20037;-82
2022/11/17 01:07:11;;;;;;;1.20;0.60;;;11.30;75.60;;;;;;4990113;28;20072;-84
2022/11/17 01:09:56;;;;;;;1.45;0.80;;;11.30;75.70;;;;;;4983962;28;20100;-82
2022/11/17 01:12:40;;;;;;;2.17;0.80;;;11.30;75.70;;;;;;4990829;28;20073;-85
2022/11/17 01:15:25;;;;;;;2.28;0.80;;;11.30;75.70;;;;;;4973940;28;20429;-84
2022/11/17 01:18:10;;;;;;;3.40;0.90;;;11.30;75.70;;;;;;4975244;28;20076;-82
2022/11/17 01:20:54;;;;;;;2.45;0.98;;;11.30;76.20;;;;;;4986697;28;20081;-83
2022/11/17 01:23:40;;;;;;;2.03;0.77;;;11.30;75.70;;;;;;4983706;28;20877;-83
2022/11/17 01:26:31;;;;;;;1.45;0.77;;;11.30;75.70;;;;;;4976740;28;20049;-82
2022/11/17 01:29:16;;;;;;;1.75;0.70;;;11.30;75.70;;;;;;4976101;28;20057;-83
2022/11/17 01:32:00;;;;;;;1.38;0.70;;;11.30;75.70;;;;;;4985923;28;20061;-82
2022/11/17 01:34:46;;;;;;;2.65;0.55;;;11.30;75.70;;;;;;4984823;28;20122;-82
2022/11/17 01:37:30;;;;;;;3.85;2.50;;;11.40;75.80;;;;;;4984451;28;20065;-81
2022/11/17 01:40:15;;;;;;;1.70;1.15;;;11.30;75.60;;;;;;4984386;28;20104;-81
2022/11/17 01:42:59;;;;;;;1.60;0.80;;;11.40;75.80;;;;;;4983756;28;20506;-81
2022/11/17 01:45:44;;;;;;;1.90;0.70;;;11.40;75.80;;;;;;4936186;28;1184518;-80
2022/11/17 01:48:28;;;;;;;1.17;0.43;;;11.40;75.80;;;;;;4985889;28;20135;-80
2022/11/17 01:51:14;;;;;;;2.50;0.70;;;11.40;75.80;;;;;;4985289;28;20049;-81
2022/11/17 01:54:00;;;;;;;0.93;0.60;;;11.40;75.80;;;;;;4983939;28;20045;-81
2022/11/17 01:56:48;;;;;;;1.45;0.65;;;11.30;75.60;;;;;;4977165;28;20045;-81
2022/11/17 01:59:37;;;;;;;6.85;0.88;;;11.30;75.60;;;;;;4983485;28;20041;-81
2022/11/17 02:02:22;;;;;;;1.85;0.50;;;11.30;75.70;;;;;;4979557;28;20049;-82
2022/11/17 02:05:28;;;;;;;1.95;0.60;;;11.30;75.70;;;;;;4972458;28;20485;-82
2022/11/17 02:08:14;;;;;;;1.25;0.80;;;11.30;75.70;;;;;;4987878;28;20544;-80
2022/11/17 02:11:01;;;;;;;0.52;0.50;;;11.30;75.70;;;;;;4986263;28;20539;-84
2022/11/17 02:13:47;;;;;;;2.75;0.70;;;11.30;75.70;;;;;;4983290;28;20414;-84
2022/11/17 02:16:31;;;;;;;1.10;0.60;;;11.30;75.70;;;;;;4976323;28;20042;-84
2022/11/17 02:19:16;;;;;;;2.35;0.70;;;11.30;75.70;;;;;;4981422;28;20117;-84
2022/11/17 02:22:10;;;;;;;1.42;0.50;;;11.30;75.70;;;;;;4989171;28;20136;-84
2022/11/17 02:24:58;;;;;;;2.10;0.65;;;11.30;75.70;;;;;;4987310;28;20149;-84
2022/11/17 02:28:10;;;;;;;1.98;0.50;;;11.30;75.70;;;;;;4979267;28;20461;-85
2022/11/17 02:31:36;;;;;;;1.30;0.70;;;11.30;75.70;;;;;;4987394;28;20080;-85
2022/11/17 02:34:35;;;;;;;1.63;0.50;;;11.20;75.50;;;;;;4988143;28;20708;-86
2022/11/17 02:37:30;;;;;;;1.75;0.57;;;11.20;75.50;;;;;;4973949;28;20057;-86
2022/11/17 02:40:25;;;;;;;2.95;1.02;;;11.20;75.50;;;;;;4981853;28;20065;-86
2022/11/17 02:46:22;;;;;;;1.05;0.40;;;11.20;75.50;;;;;;4986063;28;20050;-86
2022/11/17 02:49:17;;;;;;;1.33;0.40;;;11.20;75.50;;;;;;4999435;28;20136;-87
2022/11/17 02:52:02;;;;;;;1.30;0.50;;;11.10;75.30;;;;;;4981123;28;20069;-87
2022/11/17 02:54:46;;;;;;;3.28;0.50;;;11.10;75.30;;;;;;4979924;28;20058;-87
2022/11/17 02:57:40;;;;;;;1.42;0.40;;;11.10;75.40;;;;;;4985178;28;20050;-86
2022/11/17 03:00:26;;;;;;;0.68;0.47;;;11.10;75.30;;;;;;4978791;28;20094;-87
2022/11/17 03:03:46;;;;;;;1.05;0.50;;;11.10;75.40;;;;;;4980431;28;20046;-88
2022/11/17 03:07:09;;;;;;;1.30;0.63;;;11.10;75.40;;;;;;4978151;28;20125;-87
2022/11/17 03:10:12;;;;;;;5.18;1.75;;;11.10;75.40;;;;;;4998808;28;20094;-87
2022/11/17 03:13:11;;;;;;;2.75;0.52;;;11.10;75.40;;;;;;4997869;28;20113;-84
2022/11/17 03:16:32;;;;;;;1.02;0.50;;;11.00;75.20;;;;;;4983082;28;20130;-85
2022/11/17 03:19:16;;;;;;;0.47;0.38;;;11.00;75.20;;;;;;4976069;28;20042;-85
2022/11/17 03:22:18;;;;;;;1.15;0.40;;;11.00;75.20;;;;;;4987057;28;20667;-83
2022/11/17 03:25:06;;;;;;;3.70;0.88;;;11.00;75.20;;;;;;4974059;28;20601;-84
2022/11/17 03:27:56;;;;;;;1.73;0.50;;;11.00;75.20;;;;;;4978853;28;20060;-84
2022/11/17 03:30:44;;;;;;;1.50;0.70;;;11.00;75.10;;;;;;4991855;28;20046;-84
2022/11/17 03:33:30;;;;;;;0.88;0.52;;;11.10;75.30;;;;;;4986238;28;20085;-84
2022/11/17 03:36:19;;;;;;;2.58;0.77;;;11.00;75.10;;;;;;4975891;28;20042;-84
2022/11/17 03:39:06;;;;;;;0.55;0.45;;;11.00;75.10;;;;;;4987831;28;20061;-85
2022/11/17 03:41:58;;;;;;;0.77;0.50;;;11.00;75.10;;;;;;4974900;28;20050;-84
2022/11/17 03:44:48;;;;;;;1.35;0.80;;;11.00;75.10;;;;;;4982372;28;20064;-86
2022/11/17 03:47:33;;;;;;;2.42;0.70;;;11.00;75.10;;;;;;4991457;28;20050;-85
2022/11/17 03:50:26;;;;;;;2.05;0.60;;;11.00;75.10;;;;;;4992622;28;20486;-85
2022/11/17 03:53:11;;;;;;;1.80;0.70;;;11.00;75.10;;;;;;4983308;28;20041;-84
2022/11/17 03:56:36;;;;;;;1.00;0.70;;;11.00;75.10;;;;;;4974161;28;20062;-85
2022/11/17 03:59:58;;;;;;;3.95;1.00;;;11.00;75.10;;;;;;4924889;29;20047;-88
2022/11/17 04:02:45;;;;;;;3.10;1.00;;;11.00;75.10;;;;;;4994257;28;20041;-88
2022/11/17 04:05:29;;;;;;;3.67;0.90;;;10.90;74.90;;;;;;4980269;28;20459;-86
2022/11/17 04:08:14;;;;;;;3.20;0.98;;;11.00;75.10;;;;;;4982057;28;20165;-86
2022/11/17 04:17:05;;;;;;;5.32;1.67;;;11.00;75.10;;;;;;4971884;28;20042;-84
2022/11/17 04:19:50;;;;;;;4.28;1.30;;;11.00;75.10;;;;;;4973643;28;20050;-86
2022/11/17 04:22:34;;;;;;;1.52;1.13;;;11.00;75.10;;;;;;4974932;28;20591;-86
2022/11/17 04:28:35;;;;;;;4.45;1.40;;;11.00;75.10;;;;;;4973966;28;20093;-84
2022/11/17 04:28:36;;;;;;;2.33;1.15;;;11.00;75.10;;;;;;4975399;28;20046;-84
2022/11/17 04:31:22;;;;;;;2.13;1.20;;;11.00;75.10;;;;;;4979268;28;20090;-84
2022/11/17 04:34:06;;;;;;;6.13;1.70;;;11.00;75.10;;;;;;4989846;28;20053;-84
2022/11/17 04:36:51;;;;;;;3.80;1.42;;;11.00;75.10;;;;;;4987065;28;20058;-85
2022/11/17 04:39:37;;;;;;;8.10;1.55;;;11.00;75.10;;;;;;5003803;28;20041;-84
2022/11/17 04:42:22;;;;;;;5.00;1.65;;;11.00;75.10;;;;;;5007809;28;20041;-84
2022/11/17 04:45:07;;;;;;;4.40;1.73;;;11.00;75.10;;;;;;4998815;28;20046;-85
2022/11/17 04:47:52;;;;;;;4.47;1.90;;;11.00;75.10;;;;;;4985448;28;20061;-84
2022/11/17 04:50:36;;;;;;;3.63;1.63;;;11.00;75.10;;;;;;4986959;28;20050;-85
2022/11/17 04:53:22;;;;;;;7.30;2.58;;;11.00;75.10;;;;;;4988598;28;20045;-87
2022/11/17 04:56:07;;;;;;;4.30;1.80;;;11.00;75.20;;;;;;4970523;28;20033;-86
2022/11/17 04:58:52;;;;;;;4.15;1.80;;;11.00;75.20;;;;;;4981818;28;20046;-86
2022/11/17 05:01:36;;;;;;;2.55;1.80;;;11.00;75.20;;;;;;4981746;28;20042;-91
2022/11/17 05:07:24;;;;;;;4.35;1.85;;;10.90;75.10;;;;;;4990521;28;20072;-88
2022/11/17 05:10:09;;;;;;;6.72;2.13;;;11.00;75.30;;;;;;4999420;28;20037;-86
2022/11/17 05:19:00;;;;;;;5.43;3.13;;;11.00;75.30;;;;;;4993846;28;20070;-85
2022/11/17 05:21:44;;;;;;;8.77;2.22;;;11.00;75.80;;;;;;4971633;28;20041;-86
2022/11/17 05:24:29;;;;;;;3.38;2.15;;;11.00;75.20;;;;;;4982981;28;20096;-85
2022/11/17 05:27:14;;;;;;;4.05;1.90;;;11.00;75.30;;;;;;4992681;28;20045;-86
2022/11/17 05:30:00;;;;;;;4.20;2.85;;;11.00;75.20;;;;;;4996469;28;20069;-87
2022/11/17 05:32:44;;;;;;;4.30;2.15;;;11.00;75.30;;;;;;4978028;28;20113;-87
2022/11/17 05:35:29;;;;;;;5.28;2.10;;;11.00;75.30;;;;;;4995747;28;20040;-91
2022/11/17 05:38:13;;;;;;;6.50;2.08;;;11.00;75.30;;;;;;4998582;28;20135;-92
2022/11/17 05:40:58;;;;;;;4.80;2.33;;;11.00;75.30;;;;;;5002309;28;20052;-89
2022/11/17 05:43:43;;;;;;;6.78;2.58;;;11.00;75.30;;;;;;4993804;28;20679;-93
2022/11/17 05:46:28;;;;;;;5.05;2.60;;;11.00;75.30;;;;;;4981004;28;20065;-88
2022/11/17 05:49:12;;;;;;;4.65;2.00;;;11.00;75.30;;;;;;4996755;28;20544;-88
2022/11/17 05:51:57;;;;;;;4.95;2.22;;;11.00;75.30;;;;;;4987282;28;20046;-95
2022/11/17 05:54:41;;;;;;;6.43;2.50;;;11.00;75.30;;;;;;4995644;28;20064;-92
2022/11/17 05:57:30;;;;;;;6.32;2.35;;;11.00;75.40;;;;;;4987439;28;20046;-91
2022/11/17 06:00:15;;;;;;;5.00;2.50;;;10.90;75.20;;;;;;4995549;28;20046;-87
2022/11/17 06:03:04;;;;;;;7.57;2.38;;;11.00;75.40;;;;;;4993750;28;20080;-91
2022/11/17 06:05:48;;;;;;;4.18;2.20;;;10.90;75.20;;;;;;4992368;28;20101;-89
2022/11/17 06:08:35;;;;;;;5.38;2.45;;;11.00;75.40;;;;;;4995309;28;20049;-88
2022/11/17 06:11:19;;;;;;;5.68;2.47;;;11.00;75.40;;;;;;4996328;28;20081;-89
2022/11/17 06:14:04;;;;;;;4.90;2.67;;;11.00;75.40;;;;;;4990534;28;20053;-87
2022/11/17 06:16:51;;;;;;;7.93;2.70;;;10.90;75.80;;;;;;4981061;28;20085;-85
2022/11/17 06:19:45;;;;;;;5.00;2.15;;;10.90;75.30;;;;;;4984382;28;20116;-85
2022/11/17 06:22:30;;;;;;;4.40;2.50;;;10.90;75.40;;;;;;4990026;28;20057;-90
2022/11/17 06:25:16;;;;;;;2.30;1.95;;;10.90;75.40;;;;;;4989873;28;20050;-87
2022/11/17 06:28:03;;;;;;;8.90;3.45;;;10.90;75.40;;;;;;4971788;28;20144;-90
2022/11/17 06:30:48;;;;;;;6.68;3.20;;;10.80;75.30;;;;;;4984016;28;20085;-82
2022/11/17 06:33:34;;;;;;;8.05;3.38;;;10.80;75.30;;;;;;4997680;28;20045;-87
2022/11/17 06:36:19;;;;;;;5.75;3.13;;;10.80;75.30;;;;;;4992032;28;20070;-90
2022/11/17 06:39:04;;;;;;;5.20;2.90;;;10.80;75.40;;;;;;4990961;28;20045;-93
2022/11/17 06:41:48;;;;;;;4.00;2.33;;;10.80;75.40;;;;;;4997990;28;20142;-94
2022/11/17 06:44:33;;;;;;;5.55;2.53;;;10.80;75.90;;;;;;4989379;28;20040;-87
2022/11/17 06:47:17;;;;;;;5.28;2.40;;;10.80;75.40;;;;;;4991510;28;20152;-94
2022/11/17 06:50:03;;;;;;;5.47;2.72;;;10.80;75.40;;;;;;4992679;28;20146;-94
2022/11/17 06:52:47;;;;;;;7.38;2.78;;;10.80;75.50;;;;;;4974663;28;20065;-87
2022/11/17 06:55:33;;;;;;;5.50;2.50;;;10.80;75.60;;;;;;4995699;28;20041;-90
2022/11/17 06:58:17;;;;;;;5.75;2.47;;;10.80;75.60;;;;;;4991900;28;20070;-90
2022/11/17 07:01:11;;;;;;;5.05;2.92;;;10.70;75.40;;;;;;4973366;28;20161;-82
2022/11/17 07:03:55;;;;;;;6.80;2.75;;;10.70;75.50;;;;;;4971951;28;20102;-81
2022/11/17 07:06:40;;;;;;;4.47;2.70;;;10.70;75.80;;;;;;4990219;28;20061;-92
2022/11/17 07:09:25;;;;;;;5.70;2.75;;;10.80;76.00;;;;;;4994050;28;20061;-88
2022/11/17 07:12:09;;;;;;;5.30;2.60;;;10.70;75.80;;;;;;4995001;28;20451;-88
2022/11/17 07:14:54;;;;;;;5.43;2.75;;;10.70;75.80;;;;;;4982685;28;20117;-89
2022/11/17 07:17:38;;;;;;;3.35;2.60;;;10.70;75.90;;;;;;4990260;28;20134;-87
2022/11/17 07:20:23;;;;;;;4.38;2.25;;;10.70;75.90;;;;;;4982536;28;20084;-91
2022/11/17 07:23:08;;;;;;;3.72;2.38;;;10.70;75.90;;;;;;4986239;28;20057;-85
2022/11/17 07:25:52;;;;;;;4.75;2.33;;;10.60;75.90;;;;;;4974830;28;20038;-82
2022/11/17 07:28:37;;;;;;;4.80;2.58;;;10.60;75.90;;;;;;4987580;28;20072;-85
2022/11/17 07:31:22;;;;;;;4.47;2.28;;;10.70;76.00;;;;;;4988088;28;20041;-87
2022/11/17 07:34:06;;;;;;;3.65;2.33;;;10.60;75.90;;;;;;4989282;28;20092;-86
2022/11/17 07:36:51;;;;;;;4.00;2.83;;;10.60;75.90;;;;;;4987272;28;20046;-84
2022/11/17 07:39:35;;;;;;;4.28;2.92;;;10.50;75.80;;;;;;4985696;28;20129;-85
2022/11/17 07:42:20;;;;;;;3.28;2.17;;;10.50;75.80;;;;;;4982262;28;20049;-89
2022/11/17 07:45:10;;;;;;;7.70;2.72;;;10.60;76.00;;;;;;4972533;28;20844;-87
2022/11/17 07:47:57;;;;;;;4.68;2.25;;;10.50;75.80;;;;;;4987694;28;20054;-88
2022/11/17 07:50:41;;;;;;;8.15;2.47;;;10.50;75.80;;;;;;4981782;28;20053;-85
2022/11/17 07:53:25;;;;;;;6.85;2.58;;;10.50;75.80;;;;;;4976325;28;20098;-85
2022/11/17 07:56:10;;;;;;;6.30;2.65;;;10.50;75.80;;;;;;4989457;28;20109;-85
2022/11/17 07:58:55;;;;;;;3.28;2.10;;;10.50;75.80;;;;;;4989584;28;20041;-91
2022/11/17 08:01:40;;;;;;;2.85;2.35;;;10.50;75.80;;;;;;4977584;28;20150;-86
2022/11/17 08:04:25;;;;;;;3.85;2.58;;;10.60;75.90;;;;;;4984969;28;20505;-89
2022/11/17 08:07:09;;;;;;;5.68;3.10;;;10.60;75.90;;;;;;4988051;28;20053;-85
2022/11/17 08:09:54;;;;;;;5.70;2.80;;;10.60;75.80;;;;;;4985304;28;20061;-86
2022/11/17 08:12:38;;;;;;;6.45;3.53;;;10.60;75.80;;;;;;4974245;28;20097;-86
2022/11/17 08:15:23;;;;;;;5.07;3.15;;;10.60;75.70;;;;;;4984190;28;20549;-85
2022/11/17 08:18:07;;;;;;;6.63;3.03;;;10.70;75.80;;;;;;4985723;28;20496;-85
2022/11/17 08:21:06;;;;;;;5.30;2.92;;;10.70;75.80;;;;;;4984933;28;20128;-88
2022/11/17 08:23:53;;;;;;;6.20;2.90;;;10.70;75.70;;;;;;4981988;28;20065;-85
2022/11/17 08:26:38;;;;;;;4.43;3.13;;;10.70;75.60;;;;;;4983518;28;20136;-89
2022/11/17 08:29:23;;;;;;;5.40;3.15;;;10.70;75.60;;;;;;4983157;28;20049;-86
2022/11/17 08:32:08;;;;;;;5.22;3.20;;;10.70;75.50;;;;;;4985394;28;20045;-88
2022/11/17 08:34:52;;;;;;;3.85;3.00;;;10.80;75.70;;;;;;4981193;28;20081;-90
2022/11/17 08:37:39;;;;;;;5.90;3.63;;;10.80;75.60;;;;;;4977865;28;20209;-89
2022/11/17 08:40:25;;;;;;;6.20;3.13;;;10.80;75.60;;;;;;4984103;28;20054;-87
2022/11/17 08:43:09;;;;;;;3.85;3.00;;;10.80;75.50;;;;;;4983670;28;20402;-91
2022/11/17 08:45:54;;;;;;;5.63;3.60;;;10.80;75.50;;;;;;4979924;28;20096;-87
2022/11/17 08:48:39;;;;;;;5.18;2.60;;;10.90;75.60;;;;;;4985759;28;20171;-85
2022/11/17 08:51:24;;;;;;;3.92;2.42;;;10.90;75.50;;;;;;4983120;28;20120;-92
2022/11/17 08:54:11;;;;;;;4.15;2.90;;;10.90;75.40;;;;;;4986463;28;20046;-87
2022/11/17 08:56:57;;;;;;;4.28;2.50;;;11.00;75.60;;;;;;4979109;28;20089;-86
2022/11/17 08:59:42;;;;;;;6.18;2.53;;;11.00;75.50;;;;;;4971111;28;20041;-87
2022/11/17 09:02:27;;;;;;;5.25;2.78;;;11.10;75.60;;;;;;4984923;28;20041;-89
2022/11/17 09:05:11;;;;;;;5.43;2.80;;;11.10;75.50;;;;;;4987096;28;20084;-84
2022/11/17 09:07:58;;;;;;;2.88;2.53;;;11.20;75.60;;;;;;4973477;28;20556;-91
2022/11/17 09:10:43;;;;;;;5.30;2.60;;;11.20;75.50;;;;;;4982377;28;20062;-92
2022/11/17 09:13:30;;;;;;;2.90;2.00;;;11.30;75.50;;;;;;4974235;28;20485;-88
2022/11/17 09:16:15;;;;;;;3.10;2.20;;;11.30;75.40;;;;;;4973936;28;20049;-91
2022/11/17 09:19:01;;;;;;;4.78;2.50;;;11.40;75.50;;;;;;4983991;28;20041;-89
2022/11/17 09:21:45;;;;;;;2.85;1.75;;;11.40;75.40;;;;;;4986067;28;20061;-89
2022/11/17 09:24:30;;;;;;;4.38;2.15;;;11.40;75.30;;;;;;4986192;28;20072;-88
2022/11/17 09:27:15;;;;;;;4.00;1.90;;;11.50;75.30;;;;;;4978015;28;20049;-91
2022/11/17 09:29:59;;;;;;;8.75;2.55;;;11.50;75.20;;;;;;4986479;28;20061;-85
2022/11/17 09:32:46;;;;;;;2.50;1.65;;;11.60;75.30;;;;;;4984689;28;20160;-86
2022/11/17 09:35:30;;;;;;;3.65;2.63;;;11.70;75.30;;;;;;4986662;28;20044;-84
2022/11/17 09:38:15;;;;;;;3.60;1.85;;;11.80;75.30;;;;;;4985524;28;20520;-84
2022/11/17 09:41:21;;;;;;;2.67;1.80;;;11.90;75.30;;;;;;4985607;28;20049;-89
2022/11/17 09:44:27;;;;;;;3.65;1.55;;;12.00;75.20;;;;;;4967649;28;20050;-90
2022/11/17 09:47:40;;;;;;;3.05;1.70;;;12.10;75.20;;;;;;4981057;28;20101;-86
2022/11/17 09:50:30;;;;;;;5.13;1.65;;;12.20;75.10;;;;;;4979291;28;20050;-87
2022/11/17 09:53:33;;;;;;;3.63;1.35;;;12.30;75.10;;;;;;4984733;28;20099;-92
2022/11/17 09:56:18;;;;;;;2.35;1.40;;;12.30;74.90;;;;;;4985613;28;20077;-91
2022/11/17 09:59:05;;;;;;;3.35;1.70;;;12.40;75.00;;;;;;4978691;28;20064;-88
2022/11/17 10:01:49;;;;;;;3.42;1.77;;;12.50;74.90;;;;;;4975365;28;20211;-87
2022/11/17 10:04:34;;;;;;;2.40;1.20;;;12.50;74.80;;;;;;4975589;28;20045;-88
2022/11/17 10:07:19;;;;;;;3.88;1.60;;;12.60;74.80;;;;;;4984764;28;20101;-90
2022/11/17 10:10:10;;;;;;;2.72;1.42;;;12.70;74.90;;;;;;4980655;28;20049;-84
2022/11/17 10:12:57;;;;;;;4.97;1.30;;;12.70;74.70;;;;;;4972355;28;20041;-88
2022/11/17 10:15:46;;;;;;;3.42;1.50;;;12.80;74.70;;;;;;4973132;28;20041;-85
2022/11/17 10:18:35;;;;;;;3.63;1.63;;;12.90;74.70;;;;;;4977777;28;20092;-85
2022/11/17 10:21:19;;;;;;;1.92;1.30;;;12.90;74.50;;;;;;4974341;28;20041;-87
2022/11/17 10:24:04;;;;;;;3.80;2.40;;;13.00;74.70;;;;;;4981651;28;20110;-84
2022/11/17 10:26:48;;;;;;;3.80;1.55;;;13.00;75.00;;;;;;4979849;28;20041;-82
2022/11/17 10:29:33;;;;;;;2.63;1.50;;;13.10;75.20;;;;;;4982405;28;20057;-83
2022/11/17 10:32:17;;;;;;;3.38;1.90;;;13.20;75.30;;;;;;4983300;28;20069;-82
2022/11/17 10:35:29;;;;;;;9.15;2.15;;;13.20;75.20;;;;;;4984634;28;20133;-81
2022/11/17 10:38:19;;;;;;;2.30;1.60;;;13.20;75.10;;;;;;4985224;28;20041;-82
2022/11/17 10:41:04;;;;;;;4.50;1.85;;;13.30;75.20;;;;;;4983198;28;20050;-82
2022/11/17 10:44:00;;;;;;;5.07;2.05;;;13.30;75.10;;;;;;4974866;28;20096;-84
2022/11/17 10:46:59;;;;;;;3.88;1.95;;;13.30;74.90;;;;;;4986002;28;20049;-84
2022/11/17 10:49:44;;;;;;;5.85;1.65;;;13.30;75.30;;;;;;4986053;28;20509;-83
2022/11/17 10:52:28;;;;;;;3.78;1.55;;;13.40;74.90;;;;;;4982629;28;20537;-90
2022/11/17 10:55:34;;;;;;;3.33;1.20;;;13.40;75.30;;;;;;4992467;28;20049;-80
2022/11/17 10:58:27;;;;;;;3.42;1.70;;;13.40;74.60;;;;;;4985788;28;20069;-80
2022/11/17 11:01:11;;;;;;;;;;;13.40;74.50;;;;;;5001908;28;20065;-80
2022/11/17 11:03:56;;;;;;;4.10;1.77;;;13.50;74.60;;;;;;5011182;28;19909;-83
2022/11/17 11:06:40;;;;;;;5.72;2.25;;;13.50;74.50;;;;;;5013206;28;20049;-82
2022/11/17 11:09:26;;;;;;;3.60;1.70;;;13.50;74.40;;;;;;5008420;28;20046;-81
2022/11/17 11:12:16;;;;;;;4.20;2.00;;;13.60;74.50;;;;;;4990145;28;20488;-82
2022/11/17 11:15:02;;;;;;;4.18;2.05;;;13.60;74.30;;;;;;4983423;28;20054;-81
2022/11/17 11:17:46;;;;;;;4.70;2.83;;;13.70;74.40;;;;;;4976893;28;20457;-81
2022/11/17 11:20:44;;;;;;;3.17;1.70;;;13.70;74.10;;;;;;4979627;28;20342;-81
2022/11/17 11:23:49;;;;;;;4.60;1.67;;;13.80;74.00;;;;;;4981401;28;20561;-81
2022/11/17 11:26:54;;;;;;;4.75;2.05;;;13.90;74.00;;;;;;4988418;28;20434;-84
2022/11/17 11:30:03;;;;;;;1.92;1.45;;;14.10;73.90;;;;;;4975368;28;20137;-83
2022/11/17 11:32:59;;;;;;;2.78;1.50;;;14.10;73.50;;;;;;4979032;28;20081;-85
2022/11/17 11:36:16;;;;;;;6.78;2.90;;;14.30;73.60;;;;;;4974133;28;20049;-85
2022/11/17 11:39:09;;;;;;;4.53;1.63;;;14.40;73.40;;;;;;4990425;28;20054;-92
2022/11/17 11:42:32;;;;;;;3.88;1.50;;;14.60;73.50;;;;;;4984828;28;20104;-89
2022/11/17 11:45:45;;;;;;;2.67;1.40;;;14.70;73.10;;;;;;4988484;28;20299;-82
2022/11/17 11:48:35;;;;;;;5.63;1.70;;;14.80;73.10;;;;;;4967814;28;21009;-84
2022/11/17 11:51:32;;;;;;;5.57;1.63;;;14.80;72.80;;;;;;4985826;28;20053;-82
2022/11/17 11:54:35;;;;;;;3.65;1.52;;;14.90;73.00;;;;;;4985212;28;20089;-84
2022/11/17 11:57:26;;;;;;;3.22;1.50;;;14.90;73.00;;;;;;4986176;28;20080;-84
2022/11/17 12:00:15;;;;;;;4.57;1.55;;;14.90;73.00;;;;;;4985418;28;20052;-82
2022/11/17 12:03:20;;;;;;;3.15;1.67;;;14.90;72.90;;;;;;4966163;28;20053;-83
2022/11/17 12:09:46;;;;;;;4.65;1.17;;;14.90;72.80;;;;;;4978286;28;20057;-86
2022/11/17 12:12:35;;;;;;;2.20;1.30;;;15.00;72.70;;;;;;4988002;28;20068;-88
2022/11/17 12:15:19;;;;;;;2.38;1.63;;;15.10;72.80;;;;;;4969046;28;20093;-91
2022/11/17 12:18:30;;;;;;;2.30;1.75;;;15.20;72.60;;;;;;4972292;28;20049;-89
2022/11/17 12:21:23;;;;;;;2.67;1.65;;;15.30;72.30;;;;;;4985105;28;20072;-88
2022/11/17 12:24:24;;;;;;;1.95;1.25;;;15.40;72.30;;;;;;4983213;28;20048;-85
2022/11/17 12:27:31;;;;;;;2.97;1.23;;;15.50;72.20;;;;;;4985208;28;20164;-85
2022/11/17 12:30:50;;;;;;;3.38;1.42;;;15.60;72.00;;;;;;4981898;28;20486;-87
2022/11/17 12:33:53;;;;;;;3.95;1.58;;;15.70;71.70;;;;;;4984460;28;20195;-87
2022/11/17 12:36:37;;;;;;;3.22;1.60;;;15.80;71.70;;;;;;4975291;28;20126;-85
2022/11/17 12:39:54;;;;;;;3.63;1.15;;;15.90;71.70;;;;;;4982783;28;20233;-84
2022/11/17 12:43:12;;;;;;;3.65;1.95;;;16.00;71.40;;;;;;4974612;28;20060;-85
2022/11/17 12:45:59;;;;;;;2.05;1.20;;;16.10;71.30;;;;;;4982709;28;20130;-84
2022/11/17 12:49:11;;;;;;;7.45;1.63;;;16.10;71.20;;;;;;4970724;28;20104;-90
2022/11/17 12:52:02;;;;;;;2.33;1.13;;;16.20;70.80;;;;;;4974444;28;20049;-84
2022/11/17 12:54:58;;;;;;;1.92;1.00;;;16.30;70.90;;;;;;4983852;28;20088;-82
2022/11/17 12:57:46;;;;;;;2.25;1.00;;;16.30;70.70;;;;;;4982355;28;20033;-83
2022/11/17 13:00:35;;;;;;;2.97;1.00;;;16.30;70.50;;;;;;4984672;28;20096;-83
2022/11/17 13:03:44;;;;;;;4.40;1.20;;;16.30;70.40;;;;;;4974946;28;20046;-82
2022/11/17 13:06:28;;;;;;;2.45;1.35;;;16.30;70.10;;;;;;4974556;28;20100;-81
2022/11/17 13:09:25;;;;;;;1.65;1.00;;;16.30;70.10;;;;;;4982899;28;20112;-81
2022/11/17 13:12:10;;;;;;;3.00;1.13;;;16.40;70.30;;;;;;4975373;28;20547;-81
2022/11/17 13:14:56;;;;;;;1.90;0.93;;;16.40;70.10;;;;;;4981753;28;20512;-82
2022/11/17 13:17:42;;;;;;;3.50;1.50;;;16.40;69.90;;;;;;4983341;28;20084;-81
2022/11/17 13:20:29;;;;;;;4.30;2.47;;;16.40;69.90;;;;;;4970352;28;20458;-81
2022/11/17 13:23:20;;;;;;;3.25;1.70;;;16.40;69.80;;;;;;4980433;28;20522;-83
2022/11/17 13:26:20;;;;;;;2.63;1.23;;;16.30;69.50;;;;;;4974178;28;20049;-84
2022/11/17 13:29:11;;;;;;;2.08;1.35;;;16.30;69.30;;;;;;4971457;28;20057;-81
2022/11/17 13:32:16;;;;;;;1.58;1.08;;;16.30;69.50;;;;;;4979485;28;20132;-82
2022/11/17 13:35:00;;;;;;;2.50;1.35;;;16.30;69.30;;;;;;4984953;28;20050;-83
2022/11/17 13:38:16;;;;;;;2.10;1.30;;;16.30;69.40;;;;;;4984642;28;20533;-86
2022/11/17 13:41:01;;;;;;;3.25;0.80;;;16.40;69.10;;;;;;4967831;28;20093;-84
2022/11/17 13:43:47;;;;;;;1.95;0.98;;;16.40;69.10;;;;;;4984424;28;20045;-85
2022/11/17 13:46:34;;;;;;;3.03;1.23;;;16.50;69.20;;;;;;4977245;28;20065;-86
2022/11/17 13:49:34;;;;;;;1.48;0.98;;;16.50;68.80;;;;;;4976778;28;20458;-85
2022/11/17 13:52:35;;;;;;;2.25;1.27;;;16.50;68.60;;;;;;4984769;28;20084;-86
2022/11/17 13:55:21;;;;;;;1.65;0.90;;;16.50;68.50;;;;;;4984514;28;20041;-82
2022/11/17 13:58:25;;;;;;;2.15;1.00;;;16.50;68.60;;;;;;4981778;28;20089;-83
2022/11/17 14:01:12;;;;;;;1.45;1.00;;;16.50;68.50;;;;;;4982140;28;20152;-84
2022/11/17 14:04:21;;;;;;;2.35;1.30;;;16.50;68.40;;;;;;4983115;28;20045;-85
2022/11/17 14:07:13;;;;;;;1.20;1.10;;;16.40;68.00;;;;;;4978145;28;20092;-84
2022/11/17 14:10:27;;;;;;;1.42;0.90;;;16.40;68.20;;;;;;4983765;28;20501;-84
2022/11/17 14:13:22;;;;;;;1.88;1.00;;;16.30;67.80;;;;;;4978227;28;20112;-84
2022/11/17 14:16:27;;;;;;;2.03;1.23;;;16.30;68.10;;;;;;4980895;28;20038;-84
2022/11/17 14:19:15;;;;;;;1.73;0.82;;;16.20;67.80;;;;;;4982985;28;20093;-84
2022/11/17 14:22:19;;;;;;;1.30;1.00;;;16.10;67.80;;;;;;4982732;28;20057;-86
2022/11/17 14:25:04;;;;;;;2.70;1.23;;;16.00;67.70;;;;;;4975777;28;20061;-84
2022/11/17 14:27:49;;;;;;;2.20;1.50;;;15.90;67.60;;;;;;4987385;28;20045;-84
2022/11/17 14:30:33;;;;;;;3.80;1.75;;;15.90;68.20;;;;;;4985243;28;20081;-84
2022/11/17 14:33:19;;;;;;;2.40;1.48;;;15.80;67.50;;;;;;4986719;28;20072;-85
2022/11/17 14:36:04;;;;;;;2.42;1.13;;;15.80;67.70;;;;;;4987217;28;20057;-81
2022/11/17 14:38:49;;;;;;;3.25;1.00;;;15.70;67.50;;;;;;4985157;28;20112;-84
2022/11/17 14:41:34;;;;;;;3.25;1.20;;;15.70;67.50;;;;;;4986497;28;20501;-87
2022/11/17 14:44:18;;;;;;;1.77;1.23;;;15.70;67.50;;;;;;4959258;28;20424;-88
2022/11/17 14:47:03;;;;;;;2.45;1.10;;;15.70;67.50;;;;;;4975997;28;20580;-89
2022/11/17 14:49:49;;;;;;;3.40;1.58;;;15.70;67.50;;;;;;4986381;28;20406;-92
2022/11/17 14:52:35;;;;;;;1.95;1.33;;;15.60;67.40;;;;;;4983501;28;20154;-93
2022/11/17 14:55:20;;;;;;;2.63;0.95;;;15.60;67.60;;;;;;4987797;28;20481;-81
2022/11/17 14:58:05;;;;;;;2.63;1.05;;;15.50;68.10;;;;;;4985014;28;20045;-83
2022/11/17 15:00:49;;;;;;;1.65;0.95;;;15.40;67.50;;;;;;4982081;28;20046;-80
2022/11/17 15:03:34;;;;;;;1.35;1.20;;;15.30;67.60;;;;;;4985747;28;20386;-81
2022/11/17 15:06:19;;;;;;;1.88;1.13;;;15.20;67.60;;;;;;4988393;28;20053;-83
2022/11/17 15:09:04;;;;;;;3.03;1.13;;;15.10;67.50;;;;;;4987773;28;20061;-83
2022/11/17 15:11:50;;;;;;;2.05;1.20;;;15.10;67.70;;;;;;4972022;28;20097;-84
2022/11/17 15:14:35;;;;;;;2.55;1.33;;;15.00;67.60;;;;;;4987553;28;20136;-79